Time;durP1;ratioP1;P1;durP2;ratioP2;P2;SDS_P1;SDS_P2;PMS_P1;PMS_P2;Temp;Humidity;BMP_temperature;BMP_pressure;BME280_temperature;BME280_humidity;BME280_pressure;Samples;Min_cycle;Max_cycle;Signal;HPM_P1;HPM_P2
2022/04/15 00:00:30;;;;;;;;;;;;;;;9.89;56.55;100534.86;84795;1328;22619;-79
2022/04/15 00:02:46;;;;;;;;;;;;;;;9.91;56.67;100544.23;84762;1330;25450;-76
2022/04/15 00:04:53;;;;;;;;;;;;;;;9.92;56.82;100544.34;84783;1326;22572;-78
2022/04/15 00:07:03;;;;;;;;;;;;;;;9.94;56.83;100542.55;84808;1326;24235;-74
2022/04/15 00:09:13;;;;;;;;;;;;;;;9.97;56.83;100542.28;84766;1326;23102;-74
2022/04/15 00:11:21;;;;;;;;;;;;;;;10.01;56.55;100547.73;84776;1326;22675;-79
2022/04/15 00:13:29;;;;;;;;;;;;;;;10.03;56.26;100551.33;84756;1325;22574;-77
2022/04/15 00:15:46;;;;;;;;;;;;;;;10.04;56.24;100559.66;84728;1328;23042;-80
2022/04/15 00:17:56;;;;;;;;;;;;;;;10.04;56.21;100561.05;84779;1325;23911;-79
2022/04/15 00:20:04;;;;;;;;;;;;;;;10.05;56.33;100564.69;84791;1327;22565;-78
2022/04/15 00:22:11;;;;;;;;;;;;;;;10.07;56.29;100563.75;84788;1326;22574;-73
2022/04/15 00:24:22;;;;;;;;;;;;;;;10.09;55.97;100562.80;84806;1326;22874;-73
2022/04/15 00:26:32;;;;;;;;;;;;;;;10.09;55.98;100557.55;84773;1323;22656;-78
2022/04/15 00:28:42;;;;;;;;;;;;;;;10.09;55.85;100561.77;84815;1324;22568;-79
2022/04/15 00:30:53;;;;;;;;;;;;;;;10.09;55.87;100560.55;84771;1327;22585;-78
2022/04/15 00:33:00;;;;;;;;;;;;;;;10.08;55.68;100560.05;84800;1326;24782;-78
2022/04/15 00:35:11;;;;;;;;;;;;;;;10.07;55.91;100561.64;84788;1327;22676;-79
2022/04/15 00:37:21;;;;;;;;;;;;;;;10.08;55.91;100559.67;84772;1324;22615;-80
2022/04/15 00:39:32;;;;;;;;;;;;;;;10.10;55.81;100570.09;84783;1325;23892;-79
2022/04/15 00:41:40;;;;;;;;;;;;;;;10.13;55.82;100571.05;84881;1307;22585;-73
2022/04/15 00:43:53;;;;;;;;;;;;;;;10.14;55.80;100569.60;84691;1330;22610;-73
2022/04/15 00:46:08;;;;;;;;;;;;;;;10.17;55.87;100571.45;84705;1324;22589;-72
2022/04/15 00:48:19;;;;;;;;;;;;;;;10.18;55.88;100571.73;84707;1327;22582;-73
2022/04/15 00:50:28;;;;;;;;;;;;;;;10.20;55.79;100568.73;84708;1326;22565;-74
2022/04/15 00:52:39;;;;;;;;;;;;;;;10.22;55.93;100568.31;84711;1329;24250;-78
2022/04/15 00:54:52;;;;;;;;;;;;;;;10.23;55.99;100568.78;84707;1327;22576;-78
2022/04/15 00:57:03;;;;;;;;;;;;;;;10.24;55.97;100569.46;84726;1329;22585;-72
2022/04/15 00:59:10;;;;;;;;;;;;;;;10.25;56.01;100571.90;84699;1329;22584;-73
2022/04/15 01:01:18;;;;;;;;;;;;;;;10.26;56.02;100569.95;84627;1329;22715;-77
2022/04/15 01:03:25;;;;;;;;;;;;;;;10.26;56.01;100566.80;84694;1329;22751;-78
2022/04/15 01:05:32;;;;;;;;;;;;;;;10.26;56.01;100564.37;84635;1325;22589;-72
2022/04/15 01:07:41;;;;;;;;;;;;;;;10.26;56.39;100565.43;84698;1331;22922;-76
2022/04/15 01:09:48;;;;;;;;;;;;;;;10.26;56.47;100561.58;84701;1328;24393;-74
2022/04/15 01:11:58;;;;;;;;;;;;;;;10.26;56.52;100565.24;84732;1327;25288;-79
2022/04/15 01:14:06;;;;;;;;;;;;;;;10.26;57.04;100570.64;84745;1331;22605;-77
2022/04/15 01:16:13;;;;;;;;;;;;;;;10.25;57.34;100578.35;84692;1326;22632;-78
2022/04/15 01:18:23;;;;;;;;;;;;;;;10.25;58.21;100576.44;84700;1324;22829;-79
2022/04/15 01:20:30;;;;;;;;;;;;;;;10.23;58.76;100573.83;84698;1329;22601;-78
2022/04/15 01:22:39;;;;;;;;;;;;;;;10.22;58.85;100571.09;84726;1323;22698;-74
2022/04/15 01:24:50;;;;;;;;;;;;;;;10.22;59.36;100573.71;84728;1329;22595;-73
2022/04/15 01:26:57;;;;;;;;;;;;;;;10.21;59.72;100574.42;84728;1328;23947;-74
2022/04/15 01:29:05;;;;;;;;;;;;;;;10.21;59.92;100572.71;84727;1330;25254;-73
2022/04/15 01:31:12;;;;;;;;;;;;;;;10.19;60.37;100567.17;84728;1328;24290;-78
2022/04/15 01:33:19;;;;;;;;;;;;;;;10.18;60.39;100567.72;84696;1325;22823;-76
2022/04/15 01:35:27;;;;;;;;;;;;;;;10.19;60.59;100564.39;84693;1329;22563;-79
2022/04/15 01:37:34;;;;;;;;;;;;;;;10.18;60.51;100563.01;84704;1327;22710;-72
2022/04/15 01:39:41;;;;;;;;;;;;;;;10.18;60.72;100559.73;84704;1328;22553;-73
2022/04/15 01:41:52;;;;;;;;;;;;;;;10.17;60.81;100561.16;84761;1329;22570;-73
2022/04/15 01:43:59;;;;;;;;;;;;;;;10.16;60.99;100562.05;84744;1327;22578;-73
2022/04/15 01:46:06;;;;;;;;;;;;;;;10.16;61.25;100559.11;84796;1326;24232;-75
2022/04/15 01:48:14;;;;;;;;;;;;;;;10.14;61.39;100557.39;84711;1326;22851;-72
2022/04/15 01:50:23;;;;;;;;;;;;;;;10.14;61.53;100556.02;84699;1329;22586;-73
2022/04/15 01:52:30;;;;;;;;;;;;;;;10.13;61.70;100555.68;84731;1330;22559;-77
2022/04/15 01:54:38;;;;;;;;;;;;;;;10.13;61.82;100560.76;84729;1327;25960;-79
2022/04/15 01:56:45;;;;;;;;;;;;;;;10.13;61.85;100564.95;84759;1330;22726;-73
2022/04/15 01:58:52;;;;;;;;;;;;;;;10.12;62.05;100562.87;84730;1326;22561;-73
2022/04/15 02:00:59;;;;;;;;;;;;;;;10.12;62.33;100562.53;84746;1326;23111;-73
2022/04/15 02:03:10;;;;;;;;;;;;;;;10.12;62.24;100562.02;84753;1326;22579;-72
2022/04/15 02:05:17;;;;;;;;;;;;;;;10.12;62.26;100560.28;84641;1329;22566;-71
2022/04/15 02:07:24;;;;;;;;;;;;;;;10.13;62.10;100563.38;84598;1329;22838;-79
2022/04/15 02:09:34;;;;;;;;;;;;;;;10.14;62.28;100564.55;84725;1330;22557;-77
2022/04/15 02:11:44;;;;;;;;;;;;;;;10.13;62.20;100562.30;84750;1326;22570;-72
2022/04/15 02:13:55;;;;;;;;;;;;;;;10.14;62.41;100561.95;84714;1330;22592;-75
2022/04/15 02:16:05;;;;;;;;;;;;;;;10.14;62.41;100563.50;84729;1326;22794;-72
2022/04/15 02:18:13;;;;;;;;;;;;;;;10.14;62.52;100560.36;84666;1328;22569;-74
2022/04/15 02:20:20;;;;;;;;;;;;;;;10.14;62.38;100563.16;84755;1329;23917;-73
2022/04/15 02:22:28;;;;;;;;;;;;;;;10.14;62.55;100561.77;84745;1328;22557;-77
2022/04/15 02:24:35;;;;;;;;;;;;;;;10.13;62.72;100561.63;84764;1326;22787;-79
2022/04/15 02:26:42;;;;;;;;;;;;;;;10.12;62.64;100559.05;84752;1327;25405;-76
2022/04/15 02:28:49;;;;;;;;;;;;;;;10.13;62.88;100560.95;84735;1326;23892;-77
2022/04/15 02:30:56;;;;;;;;;;;;;;;10.12;63.01;100563.40;84733;1326;22645;-71
2022/04/15 02:33:07;;;;;;;;;;;;;;;10.11;63.03;100570.05;84761;1330;22753;-73
2022/04/15 02:35:14;;;;;;;;;;;;;;;10.11;63.10;100570.42;84735;1326;24245;-73
2022/04/15 02:37:21;;;;;;;;;;;;;;;10.10;63.10;100577.77;84758;1331;22578;-74
2022/04/15 02:39:28;;;;;;;;;;;;;;;10.11;63.12;100579.67;84709;1331;23962;-74
2022/04/15 02:41:36;;;;;;;;;;;;;;;10.11;63.15;100582.10;84723;1327;22635;-73
2022/04/15 02:43:43;;;;;;;;;;;;;;;10.11;63.23;100587.17;84716;1325;23040;-74
2022/04/15 02:45:50;;;;;;;;;;;;;;;10.11;63.23;100588.90;84741;1327;22727;-77
2022/04/15 02:47:57;;;;;;;;;;;;;;;10.11;63.38;100585.42;84736;1325;25273;-78
2022/04/15 02:50:09;;;;;;;;;;;;;;;10.10;63.61;100580.90;84630;1332;22841;-79
2022/04/15 02:52:16;;;;;;;;;;;;;;;10.08;63.74;100582.86;84701;1331;23946;-73
2022/04/15 02:54:26;;;;;;;;;;;;;;;10.07;63.94;100585.34;84736;1326;22590;-73
2022/04/15 02:56:36;;;;;;;;;;;;;;;10.07;64.05;100579.09;84708;1330;22834;-73
2022/04/15 02:58:43;;;;;;;;;;;;;;;10.06;64.20;100572.48;84720;1329;22572;-74
2022/04/15 03:00:50;;;;;;;;;;;;;;;10.05;64.33;100574.09;84748;1326;23912;-71
2022/04/15 03:02:57;;;;;;;;;;;;;;;10.04;64.40;100570.80;84782;1326;22587;-73
2022/04/15 03:05:09;;;;;;;;;;;;;;;10.04;64.49;100570.81;84637;1329;22894;-73
2022/04/15 03:07:16;;;;;;;;;;;;;;;10.02;64.59;100569.14;84752;1326;25245;-74
2022/04/15 03:09:25;;;;;;;;;;;;;;;10.01;64.74;100569.54;84797;1327;22715;-73
2022/04/15 03:11:32;;;;;;;;;;;;;;;9.97;65.26;100572.77;84768;1327;22594;-77
2022/04/15 03:13:42;;;;;;;;;;;;;;;9.94;65.46;100575.30;84738;1326;22583;-79
2022/04/15 03:15:49;;;;;;;;;;;;;;;9.92;65.63;100577.66;84679;1331;23977;-77
2022/04/15 03:17:56;;;;;;;;;;;;;;;9.89;66.13;100573.40;84700;1323;22718;-79
2022/04/15 03:20:08;;;;;;;;;;;;;;;9.86;66.33;100573.50;84737;1327;22890;-79
2022/04/15 03:22:20;;;;;;;;;;;;;;;9.83;66.46;100579.33;84772;1331;22761;-73
2022/04/15 03:24:27;;;;;;;;;;;;;;;9.81;66.50;100583.21;84730;1330;24295;-73
2022/04/15 03:26:34;;;;;;;;;;;;;;;9.81;66.79;100588.80;84741;1326;25267;-74
2022/04/15 03:28:44;;;;;;;;;;;;;;;9.80;67.13;100601.02;84559;1326;256715;-73
2022/04/15 03:30:52;;;;;;;;;;;;;;;9.77;67.16;100604.60;84776;1327;22712;-74
2022/04/15 03:32:59;;;;;;;;;;;;;;;9.77;67.01;100608.45;84710;1329;24019;-74
2022/04/15 03:35:10;;;;;;;;;;;;;;;9.77;67.14;100605.84;84630;1333;22564;-73
2022/04/15 03:37:17;;;;;;;;;;;;;;;9.76;67.29;100602.39;84760;1328;22573;-72
2022/04/15 03:39:27;;;;;;;;;;;;;;;9.76;67.36;100597.48;84733;1328;25972;-73
2022/04/15 03:41:35;;;;;;;;;;;;;;;9.76;67.20;100591.39;84653;1329;24363;-73
2022/04/15 03:43:42;;;;;;;;;;;;;;;9.76;67.48;100592.45;84654;1329;25285;-73
2022/04/15 03:45:49;;;;;;;;;;;;;;;9.74;67.61;100593.90;84743;1326;24291;-78
2022/04/15 03:47:57;;;;;;;;;;;;;;;9.73;67.80;100590.27;84704;1330;25492;-77
2022/04/15 03:50:05;;;;;;;;;;;;;;;9.73;67.83;100587.85;84703;1329;25243;-79
2022/04/15 03:52:14;;;;;;;;;;;;;;;9.73;67.93;100585.40;84749;1330;22765;-79
2022/04/15 03:54:21;;;;;;;;;;;;;;;9.73;67.85;100588.16;84784;1326;22586;-80
2022/04/15 03:56:28;;;;;;;;;;;;;;;9.74;67.96;100590.75;84714;1329;25428;-78
2022/04/15 03:58:39;;;;;;;;;;;;;;;9.75;68.01;100588.30;84630;1330;22577;-79
2022/04/15 04:00:49;;;;;;;;;;;;;;;9.75;68.16;100583.42;84819;1328;22628;-73
2022/04/15 04:02:57;;;;;;;;;;;;;;;9.76;68.28;100583.04;84766;1328;22662;-74
2022/04/15 04:05:05;;;;;;;;;;;;;;;9.77;68.24;100581.27;84766;1327;22555;-73
2022/04/15 04:07:12;;;;;;;;;;;;;;;9.79;68.45;100578.59;84753;1330;22680;-71
2022/04/15 04:09:22;;;;;;;;;;;;;;;9.79;68.56;100582.73;84658;1332;22595;-73
2022/04/15 04:11:29;;;;;;;;;;;;;;;9.79;68.51;100584.32;84745;1330;22553;-74
2022/04/15 04:13:36;;;;;;;;;;;;;;;9.79;68.80;100589.52;84777;1327;22565;-73
2022/04/15 04:15:43;;;;;;;;;;;;;;;9.79;69.01;100591.46;84619;1333;22848;-77
2022/04/15 04:17:51;;;;;;;;;;;;;;;9.77;69.07;100593.61;84742;1327;24254;-79
2022/04/15 04:20:01;;;;;;;;;;;;;;;9.77;68.92;100601.83;84686;1324;23201;-79
2022/04/15 04:22:11;;;;;;;;;;;;;;;9.75;68.99;100607.45;84705;1329;23852;-78
2022/04/15 04:24:19;;;;;;;;;;;;;;;9.75;69.15;100603.10;84739;1330;22566;-73
2022/04/15 04:26:26;;;;;;;;;;;;;;;9.74;69.37;100604.85;84751;1327;22594;-75
2022/04/15 04:28:34;;;;;;;;;;;;;;;9.75;68.92;100608.67;84693;1328;22798;-74
2022/04/15 04:30:41;;;;;;;;;;;;;;;9.77;69.38;100612.98;84707;1328;22598;-73
2022/04/15 04:32:52;;;;;;;;;;;;;;;9.78;69.67;100612.94;84719;1330;22569;-74
2022/04/15 04:34:59;;;;;;;;;;;;;;;9.78;69.78;100610.30;84670;1332;23064;-73
2022/04/15 04:37:07;;;;;;;;;;;;;;;9.80;70.10;100609.91;84707;1332;22590;-73
2022/04/15 04:39:17;;;;;;;;;;;;;;;9.81;70.13;100609.88;84726;1328;22937;-74
2022/04/15 04:41:27;;;;;;;;;;;;;;;9.83;70.08;100607.20;84698;1330;22593;-78
2022/04/15 04:43:34;;;;;;;;;;;;;;;9.85;70.33;100611.14;84753;1327;24344;-77
2022/04/15 04:45:41;;;;;;;;;;;;;;;9.86;70.28;100613.39;84764;1328;22607;-77
2022/04/15 04:47:51;;;;;;;;;;;;;;;9.89;70.16;100617.13;84695;1329;22578;-79
2022/04/15 04:50:02;;;;;;;;;;;;;;;9.92;70.18;100624.88;84724;1324;22584;-78
2022/04/15 04:52:12;;;;;;;;;;;;;;;9.94;70.22;100625.50;84731;1327;22569;-79
2022/04/15 04:54:21;;;;;;;;;;;;;;;9.95;70.04;100621.64;84700;1330;22864;-79
2022/04/15 04:56:28;;;;;;;;;;;;;;;9.98;70.18;100622.74;84049;1329;1003083;-79
2022/04/15 04:58:35;;;;;;;;;;;;;;;10.00;70.54;100623.77;84690;1329;22811;-77
2022/04/15 05:00:45;;;;;;;;;;;;;;;10.02;70.39;100630.48;84744;1330;22631;-74
2022/04/15 05:02:52;;;;;;;;;;;;;;;10.05;70.36;100630.05;84681;1325;22580;-74
2022/04/15 05:04:59;;;;;;;;;;;;;;;10.07;70.31;100632.40;84699;1332;22581;-73
2022/04/15 05:07:07;;;;;;;;;;;;;;;10.09;70.55;100628.86;84697;1332;24587;-74
2022/04/15 05:09:17;;;;;;;;;;;;;;;10.11;70.56;100627.43;84700;1330;22598;-74
2022/04/15 05:11:28;;;;;;;;;;;;;;;10.12;70.33;100625.30;84676;1330;22614;-73
2022/04/15 05:13:35;;;;;;;;;;;;;;;10.13;70.93;100626.64;84705;1330;22692;-72
2022/04/15 05:15:45;;;;;;;;;;;;;;;10.13;70.96;100626.28;84671;1326;22778;-74
2022/04/15 05:17:53;;;;;;;;;;;;;;;10.15;71.00;100629.38;84683;1330;22591;-73
2022/04/15 05:20:03;;;;;;;;;;;;;;;10.17;71.04;100629.32;84719;1330;22568;-72
2022/04/15 05:22:10;;;;;;;;;;;;;;;10.19;71.17;100632.73;84690;1332;22713;-80
2022/04/15 05:24:21;;;;;;;;;;;;;;;10.21;70.95;100632.86;84710;1332;22560;-79
2022/04/15 05:26:29;;;;;;;;;;;;;;;10.23;71.06;100639.77;84716;1324;22572;-74
2022/04/15 05:28:41;;;;;;;;;;;;;;;10.25;71.08;100639.37;84712;1332;22805;-74
2022/04/15 05:30:48;;;;;;;;;;;;;;;10.28;71.01;100640.84;84711;1332;22733;-79
2022/04/15 05:32:58;;;;;;;;;;;;;;;10.31;71.06;100641.98;84687;1329;25316;-79
2022/04/15 05:35:10;;;;;;;;;;;;;;;10.36;71.13;100649.86;84707;1330;22571;-77
2022/04/15 05:37:17;;;;;;;;;;;;;;;10.37;71.28;100650.66;84753;1328;24276;-73
2022/04/15 05:39:25;;;;;;;;;;;;;;;10.38;71.42;100652.73;84727;1330;22592;-73
2022/04/15 05:41:33;;;;;;;;;;;;;;;10.39;71.36;100653.58;84731;1327;22729;-73
2022/04/15 05:43:40;;;;;;;;;;;;;;;10.40;71.60;100656.15;84685;1332;22581;-73
2022/04/15 05:45:47;;;;;;;;;;;;;;;10.42;71.43;100658.17;84744;1330;25423;-79
2022/04/15 05:47:57;;;;;;;;;;;;;;;10.44;71.79;100660.91;84686;1331;22596;-78
2022/04/15 05:50:05;;;;;;;;;;;;;;;10.46;71.72;100662.60;84664;1329;25284;-80
2022/04/15 05:52:15;;;;;;;;;;;;;;;10.48;71.58;100663.73;84724;1331;22574;-80
2022/04/15 05:54:22;;;;;;;;;;;;;;;10.50;71.72;100663.85;84698;1330;22561;-79
2022/04/15 05:56:29;;;;;;;;;;;;;;;10.50;72.00;100662.46;84732;1330;22628;-72
2022/04/15 05:58:36;;;;;;;;;;;;;;;10.51;71.76;100661.02;84715;1328;22751;-72
2022/04/15 06:00:44;;;;;;;;;;;;;;;10.53;72.07;100659.20;84699;1330;22601;-73
2022/04/15 06:02:52;;;;;;;;;;;;;;;10.54;72.39;100658.83;84709;1330;22593;-72
2022/04/15 06:05:00;;;;;;;;;;;;;;;10.54;72.69;100657.77;84595;1333;23987;-73
2022/04/15 06:07:08;;;;;;;;;;;;;;;10.55;72.87;100663.34;84746;1328;22567;-80
2022/04/15 06:09:17;;;;;;;;;;;;;;;10.57;72.81;100663.59;84669;1330;22630;-78
2022/04/15 06:11:25;;;;;;;;;;;;;;;10.59;73.24;100665.29;84710;1329;22578;-73
2022/04/15 06:13:32;;;;;;;;;;;;;;;10.60;73.60;100665.79;84710;1328;25568;-73
2022/04/15 06:15:41;;;;;;;;;;;;;;;10.62;73.68;100662.41;84711;1330;22992;-75
2022/04/15 06:17:48;;;;;;;;;;;;;;;10.64;73.62;100661.64;84729;1330;22569;-79
2022/04/15 06:19:56;;;;;;;;;;;;;;;10.68;73.53;100667.43;84740;1331;22577;-79
2022/04/15 06:22:03;;;;;;;;;;;;;;;10.72;73.99;100667.84;84710;1330;22779;-74
2022/04/15 06:24:13;;;;;;;;;;;;;;;10.74;74.18;100675.10;84701;1330;22932;-72
2022/04/15 06:26:20;;;;;;;;;;;;;;;10.76;74.17;100676.23;84684;1329;22752;-80
2022/04/15 06:28:27;;;;;;;;;;;;;;;10.78;74.10;100678.95;84700;1329;22572;-86
2022/04/15 06:30:35;;;;;;;;;;;;;;;10.82;74.32;100678.12;84709;1328;22593;-77
2022/04/15 06:32:42;;;;;;;;;;;;;;;10.86;74.38;100681.48;84705;1327;22563;-74
2022/04/15 06:34:54;;;;;;;;;;;;;;;10.89;74.38;100677.02;84615;1330;24134;-73
2022/04/15 06:37:01;;;;;;;;;;;;;;;10.93;74.60;100681.59;84682;1332;22600;-78
2022/04/15 06:39:09;;;;;;;;;;;;;;;10.98;74.34;100687.01;84693;1330;22564;-78
2022/04/15 06:41:17;;;;;;;;;;;;;;;11.04;74.12;100687.83;84665;1330;22659;-72
2022/04/15 06:43:27;;;;;;;;;;;;;;;11.09;74.24;100688.86;84712;1329;24392;-75
2022/04/15 06:45:38;;;;;;;;;;;;;;;11.17;74.14;100689.84;84639;1332;22575;-70
2022/04/15 06:47:49;;;;;;;;;;;;;;;11.27;74.16;100691.92;84698;1330;22585;-81
2022/04/15 06:49:57;;;;;;;;;;;;;;;11.34;74.10;100692.01;84682;1330;22549;-79
2022/04/15 06:52:08;;;;;;;;;;;;;;;11.42;73.93;100690.69;84673;1330;22583;-72
2022/04/15 06:54:15;;;;;;;;;;;;;;;11.49;73.97;100695.14;84662;1329;22957;-72
2022/04/15 06:56:22;;;;;;;;;;;;;;;11.55;73.93;100697.88;84720;1329;24813;-81
2022/04/15 06:58:33;;;;;;;;;;;;;;;11.57;73.75;100702.15;84697;1324;22670;-82
2022/04/15 07:00:43;;;;;;;;;;;;;;;11.57;73.73;100699.02;84716;1331;22566;-74
2022/04/15 07:02:53;;;;;;;;;;;;;;;11.56;73.79;100703.97;84698;1330;24286;-73
2022/04/15 07:05:00;;;;;;;;;;;;;;;11.57;74.01;100707.77;84694;1327;22753;-70
2022/04/15 07:07:08;;;;;;;;;;;;;;;11.59;73.84;100709.80;84701;1329;22700;-78
2022/04/15 07:09:15;;;;;;;;;;;;;;;11.58;73.72;100709.99;84714;1330;22565;-77
2022/04/15 07:11:22;;;;;;;;;;;;;;;11.58;73.99;100708.79;84646;1330;24931;-73
2022/04/15 07:13:33;;;;;;;;;;;;;;;11.57;73.85;100708.46;84691;1330;22590;-72
2022/04/15 07:15:40;;;;;;;;;;;;;;;11.57;74.27;100708.11;84709;1326;25459;-77
2022/04/15 07:17:47;;;;;;;;;;;;;;;11.54;74.40;100708.73;84705;1330;22994;-77
2022/04/15 07:19:58;;;;;;;;;;;;;;;11.51;74.51;100706.77;84703;1329;24513;-71
2022/04/15 07:22:06;;;;;;;;;;;;;;;11.50;74.48;100701.75;84689;1329;22573;-73
2022/04/15 07:24:16;;;;;;;;;;;;;;;11.47;74.77;100699.92;84679;1332;23185;-73
2022/04/15 07:26:24;;;;;;;;;;;;;;;11.47;74.90;100707.45;84711;1328;26183;-72
2022/04/15 07:28:34;;;;;;;;;;;;;;;11.44;75.24;100707.02;84690;1330;22581;-74
2022/04/15 07:30:41;;;;;;;;;;;;;;;11.42;75.27;100704.97;84695;1324;22630;-73
2022/04/15 07:32:52;;;;;;;;;;;;;;;11.45;75.90;100706.45;84692;1330;22591;-74
2022/04/15 07:34:59;;;;;;;;;;;;;;;11.51;75.94;100709.41;84714;1330;22714;-72
2022/04/15 07:37:09;;;;;;;;;;;;;;;11.59;76.12;100707.33;84733;1327;22976;-78
2022/04/15 07:39:19;;;;;;;;;;;;;;;11.73;76.74;100704.91;84717;1332;22650;-79
2022/04/15 07:41:29;;;;;;;;;;;;;;;11.92;77.11;100700.72;84725;1327;26640;-78
2022/04/15 07:43:39;;;;;;;;;;;;;;;12.17;77.71;100702.52;84691;1328;26496;-79
2022/04/15 07:45:48;;;;;;;;;;;;;;;12.34;77.11;100698.90;84741;1330;25271;-78
2022/04/15 07:47:55;;;;;;;;;;;;;;;12.47;76.66;100698.75;84714;1326;22636;-80
2022/04/15 07:50:07;;;;;;;;;;;;;;;12.60;76.75;100699.25;84722;1332;23022;-80
2022/04/15 07:52:14;;;;;;;;;;;;;;;12.76;76.73;100699.44;84684;1330;25514;-73
2022/04/15 07:54:24;;;;;;;;;;;;;;;12.89;76.27;100699.60;84707;1328;22566;-71
2022/04/15 07:56:32;;;;;;;;;;;;;;;12.97;75.74;100698.55;84679;1330;22621;-72
2022/04/15 07:58:39;;;;;;;;;;;;;;;13.00;75.29;100698.80;84726;1330;24376;-73
2022/04/15 08:00:47;;;;;;;;;;;;;;;12.99;74.82;100703.05;84686;1330;22582;-72
2022/04/15 08:02:55;;;;;;;;;;;;;;;12.98;74.93;100703.29;84712;1330;22565;-72
2022/04/15 08:05:05;;;;;;;;;;;;;;;13.06;75.33;100703.98;84695;1332;22566;-73
2022/04/15 08:07:19;;;;;;;;;;;;;;;13.25;75.72;100705.63;84612;1330;22566;-79
2022/04/15 08:09:27;;;;;;;;;;;;;;;13.49;75.31;100708.27;84697;1332;22642;-78
2022/04/15 08:11:43;;;;;;;;;;;;;;;13.84;75.74;100705.79;84690;1330;25285;-80
2022/04/15 08:13:57;;;;;;;;;;;;;;;14.14;74.40;100702.08;84691;1330;22596;-80
2022/04/15 08:16:09;;;;;;;;;;;;;;;14.33;73.82;100705.19;84711;1329;22606;-78
2022/04/15 08:18:20;;;;;;;;;;;;;;;14.51;73.10;100706.81;84676;1331;22702;-80
2022/04/15 08:20:27;;;;;;;;;;;;;;;14.61;72.69;100705.98;84687;1329;25425;-78
2022/04/15 08:22:36;;;;;;;;;;;;;;;14.67;72.20;100711.65;84710;1329;22560;-73
2022/04/15 08:24:45;;;;;;;;;;;;;;;14.67;71.35;100711.66;84631;1333;25304;-75
2022/04/15 08:26:56;;;;;;;;;;;;;;;14.63;70.93;100715.54;84674;1330;22581;-78
2022/04/15 08:29:07;;;;;;;;;;;;;;;14.59;70.58;100716.63;84639;1329;22646;-77
2022/04/15 08:31:14;;;;;;;;;;;;;;;14.57;70.46;100717.05;84614;1332;25422;-71
2022/04/15 08:33:23;;;;;;;;;;;;;;;14.60;70.79;100716.55;84686;1330;23900;-76
2022/04/15 08:35:34;;;;;;;;;;;;;;;14.67;70.38;100714.95;84677;1329;22572;-76
2022/04/15 08:37:42;;;;;;;;;;;;;;;14.67;69.88;100718.82;84647;1330;25505;-79
2022/04/15 08:39:50;;;;;;;;;;;;;;;14.66;69.64;100716.97;84654;1330;22808;-80
2022/04/15 08:41:58;;;;;;;;;;;;;;;14.67;69.27;100716.23;84686;1332;25289;-77
2022/04/15 08:44:08;;;;;;;;;;;;;;;14.60;68.82;100720.23;84664;1329;25429;-78
2022/04/15 08:46:19;;;;;;;;;;;;;;;14.51;68.72;100718.58;84696;1329;22872;-72
2022/04/15 08:48:27;;;;;;;;;;;;;;;14.36;68.60;100723.30;84689;1332;24319;-74
2022/04/15 08:50:36;;;;;;;;;;;;;;;14.22;68.71;100724.52;84531;1332;22572;-73
2022/04/15 08:52:45;;;;;;;;;;;;;;;14.10;68.75;100723.52;84702;1331;22563;-73
2022/04/15 08:54:53;;;;;;;;;;;;;;;14.04;68.98;100723.95;84591;1333;23962;-74
2022/04/15 08:57:00;;;;;;;;;;;;;;;14.02;69.09;100728.45;84671;1329;23956;-78
2022/04/15 08:59:08;;;;;;;;;;;;;;;13.98;68.89;100725.15;84677;1329;22732;-79
2022/04/15 09:01:16;;;;;;;;;;;;;;;13.95;68.85;100723.89;84680;1332;26487;-73
2022/04/15 09:03:23;;;;;;;;;;;;;;;13.93;68.95;100725.36;84763;1328;22713;-73
2022/04/15 09:05:30;;;;;;;;;;;;;;;13.91;68.83;100727.73;84756;1327;23839;-73
2022/04/15 09:07:38;;;;;;;;;;;;;;;13.87;68.63;100726.33;84796;1328;26618;-74
2022/04/15 09:09:48;;;;;;;;;;;;;;;13.87;68.89;100729.14;84765;1327;22809;-74
2022/04/15 09:11:56;;;;;;;;;;;;;;;13.86;68.92;100731.45;84762;1330;25620;-78
2022/04/15 09:14:12;;;;;;;;;;;;;;;13.86;68.82;100733.54;84672;1329;25463;-78
2022/04/15 09:16:22;;;;;;;;;;;;;;;13.88;68.87;100731.02;84791;1325;22578;-73
2022/04/15 09:18:36;;;;;;;;;;;;;;;13.83;68.24;100731.78;84610;1330;24269;-73
2022/04/15 09:20:44;;;;;;;;;;;;;;;13.70;67.87;100729.55;84767;1327;22559;-73
2022/04/15 09:22:57;;;;;;;;;;;;;;;13.58;67.93;100728.52;84745;1329;22564;-73
2022/04/15 09:25:06;;;;;;;;;;;;;;;13.54;68.32;100730.26;84758;1327;22598;-73
2022/04/15 09:27:13;;;;;;;;;;;;;;;13.49;68.38;100732.96;84685;1330;26640;-74
2022/04/15 09:29:23;;;;;;;;;;;;;;;13.43;68.58;100736.21;84772;1327;22585;-74
2022/04/15 09:31:34;;;;;;;;;;;;;;;13.38;69.03;100735.16;84803;1327;22569;-73
2022/04/15 09:33:42;;;;;;;;;;;;;;;13.38;69.10;100736.73;84779;1327;25352;-77
2022/04/15 09:35:50;;;;;;;;;;;;;;;13.43;69.25;100738.46;84788;1330;23893;-86
2022/04/15 09:38:03;;;;;;;;;;;;;;;13.49;69.26;100734.39;84766;1327;25230;-77
2022/04/15 09:40:12;;;;;;;;;;;;;;;13.55;69.27;100729.20;84761;1330;22945;-79
2022/04/15 09:42:19;;;;;;;;;;;;;;;13.60;69.36;100730.53;84792;1327;23888;-75
2022/04/15 09:44:31;;;;;;;;;;;;;;;13.63;69.05;100731.10;84687;1332;22613;-74
2022/04/15 09:49:19;;;;;;;;;;;;;;;13.56;68.40;100731.23;81011;1332;951205;-76
2022/04/15 09:51:27;;;;;;;;;;;;;;;13.53;68.53;100731.05;84561;1335;23938;-79
2022/04/15 09:53:37;;;;;;;;;;;;;;;13.47;68.42;100732.20;84486;1333;24314;-73
2022/04/15 09:55:46;;;;;;;;;;;;;;;13.38;68.68;100732.91;84567;1333;23846;-74
2022/04/15 09:57:55;;;;;;;;;;;;;;;13.35;68.93;100732.17;84493;1333;22576;-78
2022/04/15 10:00:11;;;;;;;;;;;;;;;13.33;69.23;100735.23;84488;1333;22823;-77
2022/04/15 10:02:19;;;;;;;;;;;;;;;13.31;69.20;100735.48;84558;1335;25502;-81
2022/04/15 10:04:30;;;;;;;;;;;;;;;13.30;69.39;100731.68;84538;1334;22586;-73
2022/04/15 10:06:37;;;;;;;;;;;;;;;13.28;69.67;100731.27;84541;1327;22905;-73
2022/04/15 10:08:47;;;;;;;;;;;;;;;13.27;69.70;100737.45;84572;1333;22797;-72
2022/04/15 10:10:55;;;;;;;;;;;;;;;13.24;70.02;100736.34;84533;1335;22652;-73
2022/04/15 10:13:04;;;;;;;;;;;;;;;13.22;70.32;100738.17;84517;1333;22573;-74
2022/04/15 10:15:12;;;;;;;;;;;;;;;13.21;70.20;100741.70;84555;1332;22592;-74
2022/04/15 10:17:20;;;;;;;;;;;;;;;13.21;70.61;100741.52;84553;1328;22600;-73
2022/04/15 10:19:27;;;;;;;;;;;;;;;13.19;70.43;100745.63;84557;1327;22789;-73
2022/04/15 10:21:35;;;;;;;;;;;;;;;13.17;70.62;100749.73;84497;1333;22628;-71
2022/04/15 10:23:45;;;;;;;;;;;;;;;13.17;70.64;100751.98;84521;1333;25272;-81
2022/04/15 10:25:53;;;;;;;;;;;;;;;13.19;70.86;100751.75;84523;1332;22597;-78
2022/04/15 10:28:08;;;;;;;;;;;;;;;13.19;70.95;100749.64;84516;1333;23016;-78
2022/04/15 10:30:20;;;;;;;;;;;;;;;13.20;71.02;100750.14;84561;1332;24278;-77
2022/04/15 10:32:28;;;;;;;;;;;;;;;13.21;70.98;100752.21;84547;1332;22579;-79
2022/04/15 10:34:46;;;;;;;;;;;;;;;13.24;71.21;100747.56;84548;1333;25404;-79
2022/04/15 10:36:54;;;;;;;;;;;;;;;13.30;71.33;100750.11;84474;1332;22650;-78
2022/04/15 10:39:20;;;;;;;;;;;;;;;13.39;71.40;100748.45;84569;1332;24427;-73
2022/04/15 10:41:27;;;;;;;;;;;;;;;13.51;71.32;100745.67;84552;1333;25252;-73
2022/04/15 10:43:37;;;;;;;;;;;;;;;13.64;71.45;100736.85;84550;1333;22873;-73
2022/04/15 10:45:45;;;;;;;;;;;;;;;13.77;71.08;100734.16;84550;1333;22738;-73
2022/04/15 10:48:01;;;;;;;;;;;;;;;13.90;70.96;100731.64;84561;1333;25502;-79
2022/04/15 10:50:09;;;;;;;;;;;;;;;14.08;71.10;100729.94;84580;1333;22560;-79
2022/04/15 10:52:22;;;;;;;;;;;;;;;14.28;70.70;100729.15;84548;1333;22585;-76
2022/04/15 10:54:45;;;;;;;;;;;;;;;14.47;70.06;100731.96;84560;1332;23997;-77
2022/04/15 10:57:02;;;;;;;;;;;;;;;14.57;69.40;100728.64;84548;1331;22600;-79
2022/04/15 11:01:37;;;;;;;;;;;;;;;14.92;68.89;100721.10;84544;1328;22563;-79
2022/04/15 11:03:44;;;;;;;;;;;;;;;15.10;68.25;100718.65;84555;1332;22601;-73
2022/04/15 11:05:59;;;;;;;;;;;;;;;15.24;67.64;100716.33;84498;1331;22637;-72
2022/04/15 11:08:11;;;;;;;;;;;;;;;15.44;67.43;100716.16;84567;1333;22634;-73